tititudorancea.com
Station Historical Data
Daily Summary for January 18, 2018 Units:  Metric    English   Both
« Previous Day
Next Day »
Daily Weekly Monthly Yearly Custom
  High: Low: Average:
Temperature: -17.8 °C 12.6 °C 30.8 °C
Dew Point: -17.8 °C -1.5 °C 2.8 °C
Humidity: Humidity % 8 % 20 %
Wind Speed: 0 km/h 0 km/h 7.9 km/h
Wind Gust: 0 km/h - -
Wind:- - WNW
Pressure: 0 hPa 1007.7 hPa -
Precipitation: 0 mm    
Historical Graphs
 
 
Ararat weather Find more about Weather in Ararat, AU


 



 


Tabular Data for January 18, 2018
Time Temperature Dew Point Pressure Wind Wind Speed Wind Gust Humidity Rainfall Rate (Hourly)
-17.8 °C -17.8 °C 0 hPa Calm     Humidity % 0 mm
00:02 20.3 °C 4.8 °C 1013.4 hPa Calm     36 % 0 mm
00:24 18.9 °C 5.4 °C 1013.4 hPa Calm     41 % 0 mm
00:43 18.2 °C 6.1 °C 1013.4 hPa Calm     45 % 0 mm
00:50 17.9 °C 6.1 °C 1013.4 hPa Calm     46 % 0 mm
01:57 15.6 °C 7.3 °C 1012.8 hPa Calm     58 % 0 mm
02:05 15.6 °C 7.8 °C 1012.8 hPa Calm     60 % 0 mm
02:27 14.9 °C 7.7 °C 1012.8 hPa SSW 1.4 km/h 3.7 km/h 62 % 0 mm
02:36 14.2 °C 7.7 °C 1012.8 hPa Calm     65 % 0 mm
02:47 13.8 °C 7.8 °C 1012.8 hPa Calm     67 % 0 mm
03:18 12.9 °C 7.4 °C 1012.8 hPa Calm     69 % 0 mm
03:55 12.6 °C 7.4 °C 1012.4 hPa Calm     71 % 0 mm
04:13 13.3 °C 7.3 °C 1012.4 hPa SSW 4.2 km/h 5.6 km/h 67 % 0 mm
04:36 16.5 °C 5.4 °C 1012.4 hPa SSW 1.4 km/h 3.7 km/h 48 % 0 mm
04:45 16.8 °C 4.8 °C 1012.4 hPa SSW 2.6 km/h 5.6 km/h 45 % 0 mm
04:57 18 °C 3.8 °C 1012.4 hPa North 2.1 km/h 3.7 km/h 39 % 0 mm
05:17 19.4 °C 3.6 °C 1012.8 hPa SSW 2.9 km/h 5.6 km/h 35 % 0 mm
05:30 19.3 °C 4.2 °C 1012.8 hPa SSW 3.7 km/h 5.6 km/h 37 % 0 mm
05:35 18.6 °C 4.7 °C 1012.8 hPa SSW 5.6 km/h 6.4 km/h 40 % 0 mm
05:44 17.6 °C 4.2 °C 1012.8 hPa SSW 4.2 km/h 5.6 km/h 41 % 0 mm
05:50 17.3 °C 3.9 °C 1012.8 hPa SSW 4.7 km/h 5.6 km/h 41 % 0 mm
05:56 17.3 °C 3.6 °C 1012.8 hPa North 3.4 km/h 5.6 km/h 40 % 0 mm
06:07 17.4 °C 3.7 °C 1012.8 hPa Calm   3.7 km/h 40 % 0 mm
06:13 17.7 °C 3.9 °C 1012.8 hPa SSW 1.9 km/h 5.6 km/h 40 % 0 mm
06:32 18.7 °C 4.1 °C 1013.1 hPa SSW 2.6 km/h 5.6 km/h 38 % 0 mm
06:37 18.9 °C 3.9 °C 1013.1 hPa SSW 3.9 km/h 5.6 km/h 37 % 0 mm
06:42 19.3 °C 3.8 °C 1013.1 hPa SSW 3.2 km/h 5.6 km/h 36 % 0 mm
06:47 19.7 °C 3.8 °C 1013.1 hPa SSW 3.7 km/h 5.6 km/h 35 % 0 mm
06:52 20.2 °C 3.8 °C 1013.1 hPa SSW 4.7 km/h 7.4 km/h 34 % 0 mm
06:57 20.7 °C 4.3 °C 1013.1 hPa SSW 4 km/h 5.6 km/h 34 % 0 mm
07:02 21.1 °C 4.2 °C 1013.1 hPa North 3.5 km/h 5.6 km/h 33 % 0 mm
07:07 21.3 °C 4.3 °C 1013.1 hPa SSW 4.3 km/h 7.4 km/h 33 % 0 mm
07:12 21.6 °C 4.6 °C 1013.1 hPa SSW 5.1 km/h 7.4 km/h 33 % 0 mm
07:17 21.9 °C 4.9 °C 1013.1 hPa SSW 4.5 km/h 7.4 km/h 33 % 0 mm
07:22 22.1 °C 5.1 °C 1013.1 hPa SSW 3.7 km/h 5.6 km/h 33 % 0 mm
07:27 22.3 °C 5.2 °C 1013.1 hPa SW 4.7 km/h 5.6 km/h 33 % 0 mm
07:33 22.5 °C 5.4 °C 1013.1 hPa SW 4.7 km/h 11.1 km/h 33 % 0 mm
07:35 22.6 °C 5.4 °C 1013.1 hPa SW 5 km/h 9.7 km/h 33 % 0 mm
07:40 22.8 °C 5.7 °C 1013.4 hPa SW 4 km/h 7.4 km/h 33 % 0 mm
07:42 22.9 °C 5.8 °C 1013.4 hPa North 6 km/h 11.1 km/h 33 % 0 mm
07:43 23.1 °C 5.4 °C 1013.4 hPa WSW 6.3 km/h 9.3 km/h 32 % 0 mm
07:47 23.2 °C 5.6 °C 1013.4 hPa WSW 4 km/h 7.4 km/h 32 % 0 mm
07:52 23.4 °C 6.2 °C 1013.4 hPa WSW 4.7 km/h 7.4 km/h 33 % 0 mm
07:57 23.7 °C 6.1 °C 1013.4 hPa WSW 6.8 km/h 9.3 km/h 32 % 0 mm
08:02 24 °C 6.3 °C 1013.4 hPa WSW 6.3 km/h 9.3 km/h 32 % 0 mm
08:05 24.1 °C 6.4 °C 1013.4 hPa West 6 km/h 9.3 km/h 32 % 0 mm
08:10 24.4 °C 6.2 °C 1013.4 hPa West 6.3 km/h 11.1 km/h 31 % 0 mm
08:11 24.4 °C 6.2 °C 1013.4 hPa North 6 km/h 11.1 km/h 31 % 0 mm
08:16 24.6 °C 6.3 °C 1013.4 hPa West 6 km/h 9.3 km/h 31 % 0 mm
08:19 24.7 °C 6.4 °C 1013.4 hPa North 7.4 km/h 11.1 km/h 31 % 0 mm
08:21 24.8 °C 6.6 °C 1013.4 hPa North 6.4 km/h 9.3 km/h 31 % 0 mm
08:26 25.2 °C 6.3 °C 1013.4 hPa WNW 7.9 km/h 11.3 km/h 30 % 0 mm
08:27 25.2 °C 6.4 °C 1013.4 hPa North 8.7 km/h 13 km/h 30 % 0 mm
08:28 25.3 °C 6.4 °C 1013.4 hPa WNW 6.4 km/h 11.1 km/h 30 % 0 mm
08:29 25.3 °C 6.4 °C 1013.4 hPa WNW 6 km/h 9.3 km/h 30 % 0 mm
08:33 25.6 °C 6.7 °C 1013.4 hPa WNW 6.8 km/h 11.1 km/h 30 % 0 mm
08:34 25.7 °C 6.3 °C 1013.4 hPa WNW 7.7 km/h 9.3 km/h 29 % 0 mm
08:39 26.1 °C 6.1 °C 1013.4 hPa WNW 6 km/h 11.1 km/h 28 % 0 mm
08:44 26.3 °C 5.8 °C 1013.8 hPa North 14.8 km/h 14.8 km/h 27 % 0 mm
08:46 26.4 °C 5.9 °C 1013.4 hPa North 9 km/h 14.8 km/h 27 % 0 mm
08:50 26.5 °C 5.4 °C 1013.8 hPa NNW 13.7 km/h 22.2 km/h 26 % 0 mm
08:51 26.6 °C 5.5 °C 1013.8 hPa NNW 12.9 km/h 22.2 km/h 26 % 0 mm
08:56 26.5 °C 5.4 °C 1013.8 hPa NNW 9.3 km/h 18.5 km/h 26 % 0 mm
09:01 26.6 °C 5.5 °C 1013.8 hPa NNW 10.8 km/h 19.3 km/h 26 % 0 mm
09:06 26.7 °C 5.6 °C 1013.8 hPa NNW 8 km/h 13 km/h 26 % 0 mm
09:11 26.9 °C 5.8 °C 1013.8 hPa NNW 7.6 km/h 11.3 km/h 26 % 0 mm
09:16 27.2 °C 6 °C 1013.8 hPa North 10.6 km/h 16.7 km/h 26 % 0 mm
09:21 27.3 °C 6.1 °C 1013.4 hPa NNW 10.3 km/h 14.8 km/h 26 % 0 mm
09:26 27.4 °C 6.2 °C 1013.4 hPa North 11.7 km/h 16.7 km/h 26 % 0 mm
09:31 27.7 °C 6.4 °C 1013.4 hPa NNW 7.7 km/h 17.7 km/h 26 % 0 mm
09:36 28 °C 5.6 °C 1013.4 hPa North 13.8 km/h 18.5 km/h 24 % 0 mm
09:41 28.3 °C 5.8 °C 1013.4 hPa North 10 km/h 20.4 km/h 24 % 0 mm
09:46 28.7 °C 4.2 °C 1013.4 hPa NNE 16.4 km/h 24.1 km/h 21 % 0 mm
09:51 29.1 °C 5.2 °C 1013.4 hPa NNW 12.6 km/h 19.3 km/h 22 % 0 mm
09:56 29.4 °C 4.1 °C 1013.4 hPa North 14.8 km/h 24.1 km/h 20 % 0 mm
10:01 29.6 °C 4.3 °C 1013.1 hPa North 14.2 km/h 18.5 km/h 20 % 0 mm
10:06 29.9 °C 3.8 °C 1013.1 hPa North 17.9 km/h 25.9 km/h 19 % 0 mm
10:11 29.9 °C 3.8 °C 1013.1 hPa North 16.1 km/h 27.8 km/h 19 % 0 mm
10:16 30.1 °C 3.1 °C 1013.1 hPa NNE 14.6 km/h 24.1 km/h 18 % 0 mm
10:21 30.2 °C 3.3 °C 1013.1 hPa North 17.5 km/h 20.4 km/h 18 % 0 mm
10:26 30.5 °C 2.7 °C 1013.1 hPa NNW 11.9 km/h 24.1 km/h 17 % 0 mm
10:31 30.8 °C 2.9 °C 1013.1 hPa North 17.7 km/h 20.4 km/h 17 % 0 mm
10:36 31 °C 3.1 °C 1013.1 hPa NNW 16.9 km/h 22.2 km/h 17 % 0 mm
10:41 31.3 °C 3.3 °C 1013.1 hPa NW 14.6 km/h 22.2 km/h 17 % 0 mm
10:46 31.4 °C 2.6 °C 1013.1 hPa NNW 13.8 km/h 24.1 km/h 16 % 0 mm
10:51 31.8 °C 2.8 °C 1013.1 hPa North 15 km/h 29.6 km/h 16 % 0 mm
10:56 32.1 °C 2.2 °C 1013.1 hPa North 11.3 km/h 18.5 km/h 15 % 0 mm
11:01 32.4 °C 2.4 °C 1013.1 hPa North 14 km/h 18.5 km/h 15 % 0 mm
11:06 32.3 °C 2.3 °C 1013.1 hPa NNW 18.3 km/h 24.1 km/h 15 % 0 mm
11:11 32.3 °C 2.4 °C 1013.1 hPa NNW 15.8 km/h 22.5 km/h 15 % 0 mm
11:16 32.6 °C 3.5 °C 1013.1 hPa NNW 15.9 km/h 22.2 km/h 16 % 0 mm
11:21 32.8 °C 2.8 °C 1013.1 hPa NNW 13.5 km/h 25.9 km/h 15 % 0 mm
11:26 32.9 °C 2.8 °C 1013.1 hPa NW 12.1 km/h 18.5 km/h 15 % 0 mm
11:31 33.4 °C 2.3 °C 1012.8 hPa North 13.5 km/h 18.5 km/h 14 % 0 mm
11:36 33.6 °C 1.4 °C 1012.8 hPa NNW 18.8 km/h 22.2 km/h 13 % 0 mm
11:41 33.4 °C 2.3 °C 1012.8 hPa NNW 13.4 km/h 18.5 km/h 14 % 0 mm
11:46 33.7 °C 2.5 °C 1012.8 hPa North 19.3 km/h 37 km/h 14 % 0 mm
11:51 33.8 °C 1.5 °C 1012.8 hPa NW 13.7 km/h 25.7 km/h 13 % 0 mm
11:56 33.9 °C 1.6 °C 1012.8 hPa North 15.1 km/h 31.5 km/h 13 % 0 mm
12:01 33.9 °C 1.7 °C 1012.8 hPa NNW 13.4 km/h 24.1 km/h 13 % 0 mm
12:06 34.2 °C 1.8 °C 1012.4 hPa North 19 km/h 31.5 km/h 13 % 0 mm
12:11 34.4 °C 2 °C 1012.4 hPa NNW 17.9 km/h 18.5 km/h 13 % 0 mm
12:16 34.5 °C 2.1 °C 1012.4 hPa NNW 16.7 km/h 29.6 km/h 13 % 0 mm
12:21 34.7 °C 2.2 °C 1012.4 hPa NNE 17.7 km/h 22.2 km/h 13 % 0 mm
12:26 34.7 °C 2.2 °C 1012.4 hPa North 17.2 km/h 24.1 km/h 13 % 0 mm
12:27 34.8 °C 2.3 °C 1012.4 hPa North 20 km/h 29.6 km/h 13 % 0 mm
12:32 35.1 °C 2.6 °C 1012.1 hPa North 11.9 km/h 22.2 km/h 13 % 0 mm
12:37 35.2 °C 1.5 °C 1012.1 hPa NW 11.6 km/h 22.2 km/h 12 % 0 mm
12:42 35.6 °C 1.8 °C 1012.1 hPa NNW 20.4 km/h 35.2 km/h 12 % 0 mm
12:47 35.6 °C 0.6 °C 1012.1 hPa NW 17.5 km/h 25.9 km/h 11 % 0 mm
12:52 35.7 °C 0.7 °C 1011.7 hPa NNE 17.7 km/h 33.8 km/h 11 % 0 mm
12:57 35.9 °C 0.8 °C 1011.7 hPa NNW 12.2 km/h 18.5 km/h 11 % 0 mm
13:02 36.1 °C 0.9 °C 1011.7 hPa NNW 14.3 km/h 22.2 km/h 11 % 0 mm
13:07 36.3 °C 1.1 °C 1011.4 hPa NNE 10.5 km/h 25.7 km/h 11 % 0 mm
13:12 36.1 °C 1 °C 1011.7 hPa NW 20.3 km/h 27.8 km/h 11 % 0 mm
13:17 36.2 °C 1.1 °C 1011.7 hPa NW 13.8 km/h 22.2 km/h 11 % 0 mm
13:22 36.5 °C 1.3 °C 1011.4 hPa NW 16.7 km/h 22.5 km/h 11 % 0 mm
13:27 36.6 °C 1.3 °C 1011.4 hPa NNW 14.2 km/h 25.7 km/h 11 % 0 mm
13:32 36.6 °C 1.3 °C 1011.4 hPa NNW 20.6 km/h 27.8 km/h 11 % 0 mm
13:37 36.6 °C 1.3 °C 1011.1 hPa North 13.7 km/h 18.5 km/h 11 % 0 mm
13:42 36.6 °C 1.4 °C 1011.1 hPa North 11.3 km/h 22.2 km/h 11 % 0 mm
13:47 37 °C 0.3 °C 1011.1 hPa WNW 14.6 km/h 20.4 km/h 10 % 0 mm
13:52 37.3 °C 1.9 °C 1011.1 hPa North 15.9 km/h 16.7 km/h 11 % 0 mm
13:57 37.4 °C 0.7 °C 1010.7 hPa NNW 8.4 km/h 22.2 km/h 10 % 0 mm
14:02 37.5 °C 0.7 °C 1010.7 hPa North 6 km/h 18.5 km/h 10 % 0 mm
14:07 37.8 °C 0.9 °C 1010.7 hPa North 18.3 km/h 27.8 km/h 10 % 0 mm
14:12 37.5 °C 0.7 °C 1010.7 hPa NNW 14.6 km/h 24.1 km/h 10 % 0 mm
14:17 37.3 °C 1.9 °C 1010.7 hPa North 8 km/h 13 km/h 11 % 0 mm
14:22 37.7 °C 0.9 °C 1010.4 hPa North 17.2 km/h 25.9 km/h 10 % 0 mm
14:27 37.8 °C 2.3 °C 1010.4 hPa NNW 7.4 km/h 11.1 km/h 11 % 0 mm
14:32 38.1 °C 1.2 °C 1010.4 hPa WNW 17.7 km/h 24.1 km/h 10 % 0 mm
14:37 37.9 °C 1.1 °C 1010.4 hPa NW 8.5 km/h 18.5 km/h 10 % 0 mm
14:42 38.1 °C 1.2 °C 1010.4 hPa WNW 18.7 km/h 29.6 km/h 10 % 0 mm
14:47 37.8 °C 0.9 °C 1010.4 hPa North 10.8 km/h 18.5 km/h 10 % 0 mm
14:52 37.7 °C 0.8 °C 1010.4 hPa WNW 9.7 km/h 18.5 km/h 10 % 0 mm
14:57 38.1 °C 1.2 °C 1010 hPa NW 10.8 km/h 18.5 km/h 10 % 0 mm
15:02 38.1 °C 1.2 °C 1010 hPa North 11.6 km/h 18.5 km/h 10 % 0 mm
15:07 38.4 °C 1.4 °C 1010 hPa North 13.4 km/h 22.2 km/h 10 % 0 mm
15:12 38.3 °C -0.1 °C 1010 hPa North 10.6 km/h 16.1 km/h 9 % 0 mm
15:17 38.2 °C 1.2 °C 1010 hPa WNW 4.3 km/h 18.5 km/h 10 % 0 mm
15:22 38.3 °C 1.3 °C 1010 hPa WNW 18.2 km/h 22.2 km/h 10 % 0 mm
15:27 38.5 °C 1.5 °C 1009.7 hPa North 15.3 km/h 25.7 km/h 10 % 0 mm
15:32 38.7 °C 1.6 °C 1010 hPa North 11.6 km/h 16.7 km/h 10 % 0 mm
15:37 38.5 °C 1.5 °C 1009.7 hPa WNW 6.1 km/h 16.7 km/h 10 % 0 mm
15:42 38.4 °C 1.4 °C 1009.7 hPa WNW 14 km/h 24.1 km/h 10 % 0 mm
15:47 38.3 °C 1.3 °C 1009.7 hPa North 17.5 km/h 35.2 km/h 10 % 0 mm
15:52 38.3 °C 1.3 °C 1009.7 hPa WNW 10.6 km/h 24.1 km/h 10 % 0 mm
15:57 38.6 °C 0.1 °C 1009.4 hPa NW 10.8 km/h 14.8 km/h 9 % 0 mm
16:02 38.4 °C 1.4 °C 1009.4 hPa NW 5.1 km/h 9.7 km/h 10 % 0 mm
16:07 38.8 °C 0.2 °C 1009.4 hPa NW 11.3 km/h 19.3 km/h 9 % 0 mm
16:12 38.7 °C 0.1 °C 1009.4 hPa North 11.1 km/h 24.1 km/h 9 % 0 mm
16:17 38.9 °C 0.3 °C 1009.4 hPa NW 7.2 km/h 14.8 km/h 9 % 0 mm
16:22 38.9 °C 0.3 °C 1009.4 hPa NNW 5.6 km/h 6.4 km/h 9 % 0 mm
16:27 39.1 °C 0.4 °C 1009 hPa North 6.9 km/h 11.3 km/h 9 % 0 mm
16:32 39.1 °C 0.4 °C 1009 hPa WNW 14.3 km/h 16.7 km/h 9 % 0 mm
16:37 38.8 °C 0.3 °C 1009 hPa NW 2.6 km/h 11.3 km/h 9 % 0 mm
16:42 38.8 °C 0.2 °C 1009 hPa North 6.9 km/h 16.7 km/h 9 % 0 mm
16:47 38.9 °C 0.3 °C 1009 hPa WNW 13.2 km/h 13.2 km/h 9 % 0 mm
16:52 38.8 °C 0.3 °C 1008.7 hPa NNW 8.7 km/h 18.5 km/h 9 % 0 mm
16:57 38.9 °C 0.3 °C 1008.7 hPa NW 13.5 km/h 16.7 km/h 9 % 0 mm
17:02 39.1 °C 0.4 °C 1008.7 hPa North 14 km/h 18.5 km/h 9 % 0 mm
17:07 38.9 °C 0.3 °C 1008.7 hPa North 12.2 km/h 18.5 km/h 9 % 0 mm
17:12 39.2 °C 0.5 °C 1008.7 hPa West 10.9 km/h 13 km/h 9 % 0 mm
17:17 39.5 °C 0.8 °C 1008.4 hPa West 2.9 km/h 5.6 km/h 9 % 0 mm
17:22 39.6 °C -0.8 °C 1008.4 hPa North 5.5 km/h 7.4 km/h 8 % 0 mm
17:28 39.2 °C -1.1 °C 1008.4 hPa WSW 9.3 km/h 22.2 km/h 8 % 0 mm
17:33 39.2 °C 0.5 °C 1008 hPa WNW 13.4 km/h 13.4 km/h 9 % 0 mm
17:38 39.3 °C 0.6 °C 1008 hPa North 12.6 km/h 17.7 km/h 9 % 0 mm
17:43 39.2 °C 0.5 °C 1008 hPa North 16.3 km/h 16.3 km/h 9 % 0 mm
17:48 39.3 °C -1.1 °C 1008 hPa NNW 7.9 km/h 13 km/h 8 % 0 mm
17:53 39.3 °C -1.1 °C 1008 hPa West 4.7 km/h 9.3 km/h 8 % 0 mm
17:58 39.4 °C -0.9 °C 1008 hPa West 0.2 km/h 1.9 km/h 8 % 0 mm
18:03 39.7 °C -0.7 °C 1008 hPa West 3.7 km/h 14.8 km/h 8 % 0 mm
18:08 39.5 °C 0.8 °C 1008 hPa NNW 12.1 km/h 16.7 km/h 9 % 0 mm
18:13 39.2 °C 0.5 °C 1007.7 hPa North 2.1 km/h 5.6 km/h 9 % 0 mm
18:18 39.2 °C 0.6 °C 1007.7 hPa NNW 4.5 km/h 5.6 km/h 9 % 0 mm
18:23 39.1 °C 0.4 °C 1008 hPa NNW 9.7 km/h 13 km/h 9 % 0 mm
18:28 39 °C -1.2 °C 1007.7 hPa NW 5.8 km/h 11.1 km/h 8 % 0 mm
18:33 39.1 °C -1.2 °C 1007.7 hPa NNW 8 km/h 14.8 km/h 8 % 0 mm
18:38 39.1 °C -1.2 °C 1007.7 hPa NNW 6.9 km/h 9.3 km/h 8 % 0 mm
18:43 39 °C 0.4 °C 1007.7 hPa NW 13.4 km/h 20.4 km/h 9 % 0 mm
18:48 38.9 °C -1.3 °C 1007.7 hPa NW 10.3 km/h 18.5 km/h 8 % 0 mm
18:53 38.8 °C 0.3 °C 1007.7 hPa WNW 12.4 km/h 18.5 km/h 9 % 0 mm
18:58 38.9 °C -1.3 °C 1007.7 hPa North 12.7 km/h 18.5 km/h 8 % 0 mm
19:03 38.9 °C 0.3 °C 1007.7 hPa NW 7.1 km/h 11.1 km/h 9 % 0 mm
19:08 39 °C 0.4 °C 1007.7 hPa NW 6.3 km/h 11.3 km/h 9 % 0 mm
19:13 38.9 °C 0.3 °C 1007.7 hPa NW 3.7 km/h 9.7 km/h 9 % 0 mm
19:18 38.8 °C 0.3 °C 1007.7 hPa North 2.9 km/h 6.4 km/h 9 % 0 mm
19:23 38.8 °C -1.4 °C 1007.7 hPa NW 11.9 km/h 18.5 km/h 8 % 0 mm
19:28 38.7 °C 0.1 °C 1007.7 hPa NW 5 km/h 7.4 km/h 9 % 0 mm
19:33 38.6 °C -1.5 °C 1007.7 hPa North 9 km/h 13 km/h 8 % 0 mm
19:38 38.6 °C 0.1 °C 1007.7 hPa North 2.7 km/h 5.6 km/h 9 % 0 mm
19:43 38.5 °C 0 °C 1007.7 hPa North 6.6 km/h 9.3 km/h 9 % 0 mm
19:48 38.3 °C -0.1 °C 1008 hPa NNW 7.2 km/h 11.1 km/h 9 % 0 mm
19:53 38.1 °C -0.3 °C 1007.7 hPa NW 6.4 km/h 9.7 km/h 9 % 0 mm
19:58 38.1 °C -0.3 °C 1007.7 hPa North 6 km/h 7.4 km/h 9 % 0 mm
20:03 37.9 °C -0.4 °C 1007.7 hPa NW 4.2 km/h 6.4 km/h 9 % 0 mm
20:08 37.8 °C 0.9 °C 1007.7 hPa NW 3.5 km/h 5.6 km/h 10 % 0 mm
20:13 37.6 °C 0.8 °C 1008 hPa NW 1.3 km/h 3.7 km/h 10 % 0 mm
20:18 37.4 °C 0.7 °C 1008 hPa NW 4 km/h 5.6 km/h 10 % 0 mm
20:23 37.2 °C 1.8 °C 1008 hPa NW 2.4 km/h 5.6 km/h 11 % 0 mm
20:28 36.8 °C 1.6 °C 1008 hPa NW 1.4 km/h 3.7 km/h 11 % 0 mm
20:33 36.5 °C 1.3 °C 1008 hPa NW 2.4 km/h 3.7 km/h 11 % 0 mm
20:38 36 °C 2.1 °C 1008 hPa NW 2.9 km/h 5.6 km/h 12 % 0 mm
20:43 35.3 °C 1.6 °C 1008 hPa NW 4.7 km/h 5.6 km/h 12 % 0 mm
20:48 34.9 °C 2.4 °C 1008 hPa NW 3.4 km/h 5.6 km/h 13 % 0 mm
20:53 34.5 °C 3.1 °C 1008 hPa NW 3.1 km/h 5.6 km/h 14 % 0 mm
20:58 33.6 °C 2.4 °C 1008 hPa NW 3.5 km/h 5.6 km/h 14 % 0 mm
21:03 33.1 °C 3 °C 1008 hPa NW 2.7 km/h 3.7 km/h 15 % 0 mm
21:08 32.6 °C 3.5 °C 1008.4 hPa North 2.9 km/h 3.7 km/h 16 % 0 mm
21:13 31.8 °C 4.5 °C 1008.4 hPa NW 3.2 km/h 5.6 km/h 18 % 0 mm
21:18 31.3 °C 4.9 °C 1008.4 hPa NW 3.4 km/h 5.6 km/h 19 % 0 mm
21:23 30.5 °C 5 °C 1008.4 hPa Calm   1.9 km/h 20 % 0 mm
21:28 30.2 °C 5.4 °C 1008.4 hPa Calm     21 % 0 mm
21:33 29.7 °C 6.9 °C 1008.7 hPa NW 1 km/h 4.8 km/h 24 % 0 mm
21:38 28.8 °C 4.9 °C 1008.7 hPa West 3.9 km/h 9.3 km/h 22 % 0 mm
21:43 28.5 °C 4.1 °C 1009 hPa West 4.2 km/h 9.7 km/h 21 % 0 mm
21:48 29.2 °C 3.9 °C 1009 hPa SSE 2.4 km/h 7.4 km/h 20 % 0 mm
21:53 29.4 °C 3.3 °C 1009.4 hPa SSE 4.8 km/h 11.1 km/h 19 % 0 mm
21:58 29.8 °C 3.7 °C 1009.4 hPa South 1.4 km/h 5.6 km/h 19 % 0 mm
22:03 29.9 °C 3.8 °C 1009.4 hPa South 3.2 km/h 7.4 km/h 19 % 0 mm
22:08 29.7 °C 3.6 °C 1009.7 hPa South 0.5 km/h 3.2 km/h 19 % 0 mm
22:13 29.7 °C 3.6 °C 1009.7 hPa Calm   1.9 km/h 19 % 0 mm
22:18 29.5 °C 4.2 °C 1009.7 hPa South 1.4 km/h 7.4 km/h 20 % 0 mm
22:23 29.3 °C 4.1 °C 1009.7 hPa South 1.6 km/h 5.6 km/h 20 % 0 mm
22:28 29.1 °C 3.8 °C 1009.7 hPa Calm     20 % 0 mm
22:33 28.8 °C 3.6 °C 1009.7 hPa Calm     20 % 0 mm
22:38 28.6 °C 3.4 °C 1009.7 hPa Calm   1.6 km/h 20 % 0 mm
22:43 28.2 °C 3.8 °C 1009.7 hPa South 0.3 km/h 6.4 km/h 21 % 0 mm
22:48 28.1 °C 3.7 °C 1009.7 hPa South 0.6 km/h 1.9 km/h 21 % 0 mm
22:53 27.9 °C 4.2 °C 1009.7 hPa Calm     22 % 0 mm
22:58 27.6 °C 3.9 °C 1009.7 hPa South 1.6 km/h 5.6 km/h 22 % 0 mm
23:03 27.5 °C 3.9 °C 1009.7 hPa Calm   1.9 km/h 22 % 0 mm
23:08 27.5 °C 3.9 °C 1010 hPa South 1.3 km/h 6.4 km/h 22 % 0 mm
23:13 27.4 °C 3.8 °C 1009.7 hPa Calm     22 % 0 mm
23:18 27.4 °C 4.4 °C 1009.7 hPa South 0.3 km/h 1.9 km/h 23 % 0 mm
23:23 26.9 °C 4.6 °C 1009.7 hPa Calm     24 % 0 mm
23:28 26.4 °C 4.8 °C 1009.7 hPa South 2.7 km/h 5.6 km/h 25 % 0 mm
23:33 26 °C 5 °C 1009.7 hPa South 2.3 km/h 5.6 km/h 26 % 0 mm
23:38 25.7 °C 4.8 °C 1010 hPa South 1.1 km/h 1.9 km/h 26 % 0 mm
23:43 25.7 °C 4.2 °C 1010 hPa Calm     25 % 0 mm
23:48 25.7 °C 5.3 °C 1010 hPa South 0.5 km/h 3.2 km/h 27 % 0 mm
23:53 25.4 °C 4.5 °C 1010 hPa Calm     26 % 0 mm
23:58 25.1 °C 4.8 °C 1010 hPa Calm     27 % 0 mm
Ararat Weather
Compliments of Weather Underground - 2.25 mb
Click here to send mail.


ABOUT

Live weather data from Ararat, Victoria, Australia, 3377
Data uploaded from Cumulus every 5 minutes to Weather Underground.
This site then downloads the raw data for formatting and display.
Metric and imperial data can be displayed. Graphs and historical data available.
Includes Sun and Moon times and rain image live from BOM.

Check out Ararat Weather on Facebook, Twitter and Google +

Help support ongoing costs by checking out the ads





Follow @AraratWeather